createdAt,value
2023-01-31T00:00:49.408Z,5.50
2023-01-31T00:03:18.330Z,4.93
2023-01-31T00:05:46.867Z,4.47
2023-01-31T00:08:16.793Z,4.20
2023-01-31T00:10:45.239Z,4.37
2023-01-31T00:13:13.832Z,4.30
2023-01-31T00:15:42.248Z,4.40
2023-01-31T00:18:10.641Z,4.83
2023-01-31T00:20:39.284Z,4.27
2023-01-31T00:23:07.617Z,4.43
2023-01-31T00:25:37.699Z,4.33
2023-01-31T00:28:06.543Z,4.23
2023-01-31T00:30:36.085Z,4.40
2023-01-31T00:33:07.167Z,3.93
2023-01-31T00:35:39.776Z,4.60
2023-01-31T00:38:08.366Z,4.33
2023-01-31T00:40:38.517Z,4.70
2023-01-31T00:43:07.914Z,4.23
2023-01-31T00:45:39.223Z,4.50
2023-01-31T00:48:07.732Z,4.87
2023-01-31T00:50:38.844Z,5.00
2023-01-31T00:53:07.584Z,5.20
2023-01-31T00:55:38.541Z,5.57
2023-01-31T00:58:10.191Z,6.47
2023-01-31T01:00:39.328Z,6.27
2023-01-31T01:03:07.826Z,5.83
2023-01-31T01:05:36.577Z,5.30
2023-01-31T01:08:06.372Z,4.80
2023-01-31T01:10:35.573Z,4.80
2023-01-31T01:13:07.115Z,4.40
2023-01-31T01:15:39.287Z,4.60
2023-01-31T01:18:10.792Z,3.97
2023-01-31T01:20:39.836Z,4.67
2023-01-31T01:23:11.598Z,4.47
2023-01-31T01:25:44.430Z,4.87
2023-01-31T01:28:14.419Z,5.00
2023-01-31T01:30:43.977Z,4.70
2023-01-31T01:33:12.468Z,4.57
2023-01-31T01:35:41.121Z,4.57
2023-01-31T01:38:09.631Z,4.80
2023-01-31T01:40:41.504Z,4.00
2023-01-31T01:43:13.160Z,4.10
2023-01-31T01:45:41.765Z,4.07
2023-01-31T01:48:15.341Z,4.27
2023-01-31T01:50:48.658Z,4.60
2023-01-31T01:53:20.150Z,4.10
2023-01-31T01:55:51.713Z,4.40
2023-01-31T01:58:24.989Z,4.50
2023-01-31T02:00:54.686Z,4.07
2023-01-31T02:03:23.636Z,4.63
2023-01-31T02:05:55.872Z,5.17
2023-01-31T02:08:26.715Z,4.63
2023-01-31T02:10:58.527Z,4.77
2023-01-31T02:13:29.734Z,5.13
2023-01-31T02:15:59.203Z,4.37
2023-01-31T02:18:28.988Z,3.87
2023-01-31T02:21:25.081Z,4.20
2023-01-31T02:24:38.861Z,4.40
2023-01-31T02:27:46.326Z,4.67
2023-01-31T02:30:55.836Z,5.20
2023-01-31T02:33:31.308Z,4.70
2023-01-31T02:36:09.079Z,4.03
2023-01-31T02:38:49.288Z,4.43
2023-01-31T02:41:23.806Z,4.33
2023-01-31T02:44:14.183Z,4.50
2023-01-31T02:46:50.350Z,3.93
2023-01-31T02:49:35.615Z,4.80
2023-01-31T02:52:18.244Z,4.20
2023-01-31T02:55:15.307Z,4.43
2023-01-31T02:57:46.366Z,4.00
2023-01-31T03:00:15.918Z,3.63
2023-01-31T03:02:44.566Z,5.00
2023-01-31T03:05:16.929Z,5.17
2023-01-31T03:07:48.232Z,5.83
2023-01-31T03:10:42.445Z,4.70
2023-01-31T03:13:32.983Z,5.57
2023-01-31T03:16:36.402Z,4.83
2023-01-31T03:19:14.002Z,4.77
2023-01-31T03:21:48.475Z,4.50
2023-01-31T03:24:20.566Z,4.33
2023-01-31T03:26:52.112Z,4.33
2023-01-31T03:29:21.155Z,4.07
2023-01-31T03:31:55.710Z,3.87
2023-01-31T03:34:25.780Z,3.83
2023-01-31T03:37:04.984Z,3.87
2023-01-31T03:40:00.937Z,3.97
2023-01-31T03:42:37.835Z,4.10
2023-01-31T03:45:11.120Z,4.00
2023-01-31T03:47:43.466Z,3.53
2023-01-31T03:50:16.833Z,3.50
2023-01-31T03:52:53.193Z,3.60
2023-01-31T03:55:25.878Z,3.50
2023-01-31T03:57:57.705Z,3.73
2023-01-31T04:00:28.231Z,3.90
2023-01-31T04:03:05.821Z,3.87
2023-01-31T04:05:34.839Z,3.57
2023-01-31T04:08:07.115Z,3.50
2023-01-31T04:10:36.167Z,3.40
2023-01-31T04:13:04.812Z,3.60
2023-01-31T04:15:33.400Z,3.53
2023-01-31T04:18:01.794Z,3.60
2023-01-31T04:20:30.378Z,3.30
2023-01-31T04:23:00.158Z,3.80
2023-01-31T04:25:32.711Z,3.77
2023-01-31T04:28:01.343Z,3.77
2023-01-31T04:30:29.697Z,3.13
2023-01-31T04:32:58.420Z,3.20
2023-01-31T04:35:26.889Z,3.60
2023-01-31T04:37:55.409Z,3.60
2023-01-31T04:40:23.979Z,3.27
2023-01-31T04:42:53.923Z,3.40
2023-01-31T04:45:22.582Z,3.93
2023-01-31T04:47:51.075Z,3.80
2023-01-31T04:50:19.637Z,3.97
2023-01-31T04:52:51.383Z,3.60
2023-01-31T04:55:20.810Z,3.80
2023-01-31T04:57:49.521Z,3.67
2023-01-31T05:00:21.252Z,3.60
2023-01-31T05:02:51.715Z,4.10
2023-01-31T05:05:20.430Z,3.50
2023-01-31T05:07:49.001Z,3.40
2023-01-31T05:10:18.341Z,3.47
2023-01-31T05:12:48.010Z,3.40
2023-01-31T05:15:19.261Z,3.53
2023-01-31T05:17:54.371Z,3.80
2023-01-31T05:20:22.780Z,3.50
2023-01-31T05:22:51.814Z,3.37
2023-01-31T05:25:20.521Z,3.20
2023-01-31T05:27:49.268Z,3.17
2023-01-31T05:30:19.243Z,3.50
2023-01-31T05:32:49.865Z,2.97
2023-01-31T05:35:23.298Z,3.53
2023-01-31T05:37:54.286Z,2.80
2023-01-31T05:40:23.338Z,2.80
2023-01-31T05:42:56.125Z,3.33
2023-01-31T05:45:24.656Z,3.37
2023-01-31T05:47:53.768Z,2.90
2023-01-31T05:50:24.014Z,3.70
2023-01-31T05:52:53.267Z,3.10
2023-01-31T05:55:22.940Z,3.17
2023-01-31T05:57:52.784Z,3.13
2023-01-31T06:00:32.345Z,3.23
2023-01-31T06:03:08.582Z,3.40
2023-01-31T06:05:54.382Z,3.20
2023-01-31T06:08:23.022Z,3.00
2023-01-31T06:10:51.566Z,2.80
2023-01-31T06:13:22.836Z,2.67
2023-01-31T06:15:51.681Z,2.70
2023-01-31T06:18:20.640Z,2.90
2023-01-31T06:23:48.197Z,2.67
2023-01-31T06:26:16.694Z,3.20
2023-01-31T06:28:46.284Z,3.33
2023-01-31T06:31:15.146Z,3.10
2023-01-31T06:33:47.270Z,2.87
2023-01-31T06:36:22.976Z,2.90
2023-01-31T06:38:52.341Z,3.23
2023-01-31T06:41:22.496Z,3.47
2023-01-31T06:43:53.143Z,3.03
2023-01-31T22:30:27.957Z,6.70
2023-01-31T22:32:56.560Z,5.47
2023-01-31T22:35:26.469Z,6.53
2023-01-31T22:37:54.966Z,6.57
2023-01-31T22:40:23.745Z,6.00
2023-01-31T22:42:52.164Z,5.47
2023-01-31T22:45:20.540Z,5.83
2023-01-31T22:47:50.238Z,5.63
2023-01-31T22:50:19.091Z,5.30
2023-01-31T22:52:49.476Z,4.80
2023-01-31T22:55:17.938Z,5.60
2023-01-31T22:57:47.889Z,3.90
2023-01-31T23:00:16.660Z,4.80
2023-01-31T23:02:44.915Z,4.93
2023-01-31T23:05:14.820Z,4.10
2023-01-31T23:07:43.182Z,4.30
2023-01-31T23:10:14.609Z,4.10
2023-01-31T23:12:43.160Z,4.23
2023-01-31T23:15:15.265Z,4.63
2023-01-31T23:17:44.755Z,4.70
2023-01-31T23:20:16.582Z,4.60
2023-01-31T23:22:45.951Z,5.10
2023-01-31T23:25:15.796Z,4.63
2023-01-31T23:27:44.312Z,4.03
2023-01-31T23:30:15.141Z,4.10
2023-01-31T23:32:43.952Z,4.23
2023-01-31T23:35:17.110Z,4.50
2023-01-31T23:37:45.737Z,4.63
2023-01-31T23:40:14.268Z,3.97
2023-01-31T23:42:45.275Z,4.50
2023-01-31T23:45:13.686Z,4.70
2023-01-31T23:47:44.695Z,4.07
2023-01-31T23:50:13.462Z,4.50
2023-01-31T23:52:45.631Z,4.07
2023-01-31T23:55:14.126Z,4.30
2023-01-31T23:57:42.779Z,4.47
